createdAt,value
2022-12-17T00:01:11.205Z,64.90
2022-12-17T00:03:57.174Z,48.57
2022-12-17T00:06:42.900Z,59.33
2022-12-17T00:09:28.392Z,63.83
2022-12-17T00:12:13.906Z,55.03
2022-12-17T00:14:59.928Z,63.63
2022-12-17T00:17:48.428Z,57.40
2022-12-17T00:20:37.717Z,63.07
2022-12-17T00:23:24.416Z,57.03
2022-12-17T00:26:16.279Z,59.67
2022-12-17T00:29:02.646Z,62.03
2022-12-17T00:31:49.143Z,55.60
2022-12-17T00:34:35.431Z,62.80
2022-12-17T00:37:21.391Z,57.17
2022-12-17T00:40:06.878Z,62.17
2022-12-17T00:42:52.401Z,55.73
2022-12-17T00:45:42.547Z,62.93
2022-12-17T00:48:27.992Z,65.20
2022-12-17T00:51:14.367Z,55.60
2022-12-17T00:54:00.426Z,60.90
2022-12-17T00:56:46.958Z,56.90
2022-12-17T00:59:33.124Z,56.37
2022-12-17T01:02:18.732Z,58.53
2022-12-17T01:05:04.719Z,55.93
2022-12-17T01:07:50.334Z,56.17
2022-12-17T01:10:36.592Z,59.03
2022-12-17T01:13:22.251Z,57.87
2022-12-17T01:16:07.630Z,59.87
2022-12-17T01:18:53.226Z,60.33
2022-12-17T01:21:42.499Z,61.17
2022-12-17T01:24:28.590Z,64.37
2022-12-17T01:27:14.010Z,60.30
2022-12-17T01:29:59.546Z,69.20
2022-12-17T01:32:44.952Z,69.80
2022-12-17T01:35:30.641Z,55.77
2022-12-17T01:38:16.754Z,58.27
2022-12-17T01:41:02.728Z,67.20
2022-12-17T01:43:54.730Z,59.33
2022-12-17T01:46:41.812Z,67.50
2022-12-17T01:49:30.094Z,63.40
2022-12-17T01:52:18.556Z,61.27
2022-12-17T01:55:04.946Z,72.83
2022-12-17T01:57:51.509Z,66.13
2022-12-17T02:00:38.188Z,54.93
2022-12-17T02:03:24.814Z,61.40
2022-12-17T02:06:32.035Z,52.33
2022-12-17T02:09:55.216Z,65.23
2022-12-17T02:13:00.006Z,58.57
2022-12-17T02:16:03.662Z,58.87
2022-12-17T02:19:00.301Z,68.93
2022-12-17T02:21:48.114Z,59.10
2022-12-17T02:24:59.187Z,67.60
2022-12-17T02:27:45.803Z,58.93
2022-12-17T02:30:32.573Z,59.23
2022-12-17T02:33:19.152Z,61.50
2022-12-17T02:36:22.001Z,70.57
2022-12-17T02:39:08.053Z,64.17
2022-12-17T02:42:11.764Z,64.10
2022-12-17T02:44:59.131Z,65.73
2022-12-17T02:47:47.369Z,64.03
2022-12-17T02:50:33.362Z,64.53
2022-12-17T02:53:21.768Z,62.63
2022-12-17T02:56:07.660Z,57.63
2022-12-17T02:58:55.834Z,67.90
2022-12-17T03:01:41.787Z,61.70
2022-12-17T03:04:27.273Z,69.73
2022-12-17T03:07:12.699Z,66.03
2022-12-17T03:09:58.415Z,73.77
2022-12-17T03:12:43.834Z,65.77
2022-12-17T03:15:29.405Z,58.73
2022-12-17T03:18:15.324Z,66.70
2022-12-17T03:21:01.338Z,66.77
2022-12-17T03:23:57.573Z,68.63
2022-12-17T03:26:43.249Z,65.37
2022-12-17T03:29:28.771Z,70.07
2022-12-17T03:32:14.160Z,72.80
2022-12-17T03:34:59.676Z,73.07
2022-12-17T03:37:45.131Z,79.87
2022-12-17T03:40:31.084Z,67.47
2022-12-17T03:43:16.570Z,63.23
2022-12-17T03:46:02.052Z,63.57
2022-12-17T03:48:47.585Z,69.77
2022-12-17T03:51:32.930Z,78.57
2022-12-17T03:54:19.063Z,62.17
2022-12-17T03:57:04.545Z,61.53
2022-12-17T03:59:49.901Z,61.07
2022-12-17T04:02:35.843Z,71.43
2022-12-17T04:05:22.070Z,68.07
2022-12-17T04:08:07.669Z,68.80
2022-12-17T04:10:54.027Z,73.40
2022-12-17T04:13:41.204Z,68.40
2022-12-17T04:16:28.576Z,61.83
2022-12-17T04:19:14.163Z,62.67
2022-12-17T04:21:59.597Z,69.23
2022-12-17T04:24:45.143Z,60.30
2022-12-17T04:27:30.985Z,57.77
2022-12-17T04:30:16.527Z,74.47
2022-12-17T04:33:02.061Z,67.67
2022-12-17T04:35:47.598Z,74.43
2022-12-17T04:38:44.274Z,64.00
2022-12-17T04:41:30.077Z,68.50
2022-12-17T04:44:15.782Z,63.60
2022-12-17T04:47:02.771Z,71.37
2022-12-17T04:49:48.872Z,66.10
2022-12-17T04:52:34.432Z,73.13
2022-12-17T04:55:20.346Z,69.63
2022-12-17T04:58:05.765Z,66.10
2022-12-17T05:00:51.155Z,72.37
2022-12-17T05:03:37.559Z,71.40
2022-12-17T05:06:23.904Z,71.80
2022-12-17T05:09:09.240Z,76.23
2022-12-17T05:11:54.924Z,65.03
2022-12-17T05:14:40.807Z,69.33
2022-12-17T05:17:26.269Z,77.53
2022-12-17T05:20:11.750Z,70.87
2022-12-17T05:22:57.160Z,73.57
2022-12-17T05:25:43.091Z,65.17
2022-12-17T05:28:28.675Z,66.57
2022-12-17T05:31:15.748Z,66.63
2022-12-17T05:34:01.815Z,62.57
2022-12-17T05:36:47.133Z,66.07
2022-12-17T05:39:32.699Z,67.70
2022-12-17T05:42:18.142Z,63.50
2022-12-17T05:45:04.052Z,64.73
2022-12-17T05:47:49.746Z,64.20
2022-12-17T05:50:35.621Z,65.23
2022-12-17T05:53:24.627Z,62.67
2022-12-17T05:56:13.518Z,62.47
2022-12-17T05:58:58.995Z,63.83
2022-12-17T06:01:44.534Z,61.57
2022-12-17T06:04:30.536Z,58.30
2022-12-17T06:07:16.088Z,63.80
2022-12-17T06:10:01.569Z,65.43
2022-12-17T06:12:57.849Z,61.53
2022-12-17T06:15:43.647Z,54.20
2022-12-17T06:18:29.083Z,61.63
2022-12-17T06:21:28.243Z,64.30
2022-12-17T06:24:14.168Z,65.10
2022-12-17T06:26:59.667Z,64.77
2022-12-17T06:29:45.000Z,67.40
2022-12-17T06:32:30.475Z,66.83
2022-12-17T06:35:15.981Z,66.00
2022-12-17T06:38:01.659Z,69.30
2022-12-17T06:40:47.145Z,74.00
2022-12-17T06:43:33.390Z,70.27
2022-12-17T06:46:19.540Z,79.23
2022-12-17T06:49:05.534Z,66.37
2022-12-17T06:51:51.062Z,81.73
2022-12-17T06:54:36.850Z,77.80
2022-12-17T06:57:22.424Z,74.87
2022-12-17T07:00:08.484Z,78.87
2022-12-17T07:02:54.034Z,71.33
2022-12-17T07:05:39.767Z,76.93
2022-12-17T07:08:25.195Z,77.87
2022-12-17T07:11:11.303Z,74.70
2022-12-17T07:13:56.908Z,82.80
2022-12-17T07:16:42.714Z,68.70
2022-12-17T07:19:28.447Z,80.60
2022-12-17T07:22:14.834Z,80.00
2022-12-17T07:25:02.175Z,85.73
2022-12-17T07:27:48.364Z,79.53
2022-12-17T07:30:34.450Z,83.77
2022-12-17T07:33:25.924Z,82.27
2022-12-17T07:36:13.180Z,74.80
2022-12-17T07:38:59.813Z,84.67
2022-12-17T07:41:45.372Z,93.07
2022-12-17T07:44:31.545Z,82.67
2022-12-17T07:47:17.710Z,102.13
2022-12-17T07:50:03.775Z,85.00
2022-12-17T07:52:49.368Z,88.90
2022-12-17T07:55:36.263Z,89.30
2022-12-17T07:58:27.296Z,93.27
2022-12-17T08:01:13.051Z,95.83
2022-12-17T08:03:59.192Z,95.33
2022-12-17T08:06:45.147Z,104.23
2022-12-17T08:09:31.272Z,97.73
2022-12-17T08:12:17.343Z,95.87
2022-12-17T08:15:03.121Z,93.83
2022-12-17T08:17:49.242Z,107.17
2022-12-17T08:20:35.498Z,110.67
2022-12-17T08:23:23.396Z,122.47
2022-12-17T08:26:09.552Z,114.37
2022-12-17T08:28:55.542Z,120.27
2022-12-17T08:31:43.544Z,114.53
2022-12-17T08:34:29.748Z,117.40
2022-12-17T08:37:15.786Z,116.40
2022-12-17T08:40:01.769Z,117.03
2022-12-17T08:42:47.910Z,112.50
2022-12-17T08:45:33.966Z,119.87
2022-12-17T08:48:26.022Z,113.03
2022-12-17T08:51:12.741Z,123.93
2022-12-17T08:53:58.304Z,155.70
2022-12-17T08:56:45.253Z,121.40
2022-12-17T08:59:30.699Z,126.30
2022-12-17T09:02:16.212Z,114.77
2022-12-17T09:05:01.688Z,113.37
2022-12-17T09:07:47.676Z,110.97
2022-12-17T09:10:33.520Z,114.00
2022-12-17T09:13:22.778Z,113.23
2022-12-17T09:16:15.559Z,116.40
2022-12-17T09:19:01.991Z,109.30
2022-12-17T09:21:49.705Z,120.97
2022-12-17T09:24:35.528Z,124.27
2022-12-17T09:27:21.089Z,123.37
2022-12-17T09:30:06.364Z,117.70
2022-12-17T09:32:55.941Z,120.47
2022-12-17T09:35:41.409Z,115.87
2022-12-17T09:38:30.990Z,115.03
2022-12-17T09:41:26.073Z,105.37
2022-12-17T09:44:27.209Z,108.17
2022-12-17T09:47:27.066Z,116.17
2022-12-17T09:50:14.439Z,102.57
2022-12-17T09:53:02.193Z,108.43
2022-12-17T09:56:06.340Z,109.97
2022-12-17T09:58:57.210Z,128.70
2022-12-17T10:01:53.494Z,119.57
2022-12-17T10:04:58.422Z,103.07
2022-12-17T10:07:59.954Z,98.20
2022-12-17T10:10:50.661Z,90.20
2022-12-17T10:13:40.635Z,96.13
2022-12-17T10:16:52.763Z,110.23
2022-12-17T10:19:52.083Z,93.20
2022-12-17T10:22:39.965Z,83.47
2022-12-17T10:25:38.897Z,82.40
2022-12-17T10:28:30.516Z,85.70
2022-12-17T10:31:17.133Z,89.40
2022-12-17T10:34:04.935Z,70.83
2022-12-17T10:36:52.287Z,69.77
2022-12-17T10:39:43.364Z,75.63
2022-12-17T10:42:57.681Z,81.17
2022-12-17T10:45:44.949Z,84.27
2022-12-17T10:48:41.018Z,72.30
2022-12-17T10:51:43.271Z,76.70
2022-12-17T10:54:49.674Z,67.03
2022-12-17T10:57:57.665Z,74.53
2022-12-17T11:00:53.493Z,63.63
2022-12-17T11:04:05.936Z,72.57
2022-12-17T11:07:03.452Z,73.27
2022-12-17T11:10:08.995Z,72.70
2022-12-17T11:13:02.297Z,74.80
2022-12-17T11:16:07.846Z,81.07
2022-12-17T11:19:09.134Z,86.30
2022-12-17T11:22:02.439Z,66.33
2022-12-17T11:25:03.042Z,70.80
2022-12-17T11:28:00.717Z,78.03
2022-12-17T11:30:47.246Z,74.60
2022-12-17T11:34:05.179Z,79.00
2022-12-17T11:37:10.325Z,78.60
2022-12-17T11:40:16.687Z,74.73
2022-12-17T11:43:17.712Z,80.10
2022-12-17T11:46:28.786Z,76.93
2022-12-17T11:50:09.373Z,75.43
2022-12-17T11:53:28.565Z,79.60
2022-12-17T11:56:57.535Z,86.57
2022-12-17T11:59:54.292Z,83.33
2022-12-17T12:03:25.579Z,73.20
2022-12-17T12:06:17.481Z,71.40
2022-12-17T12:09:12.082Z,74.67
2022-12-17T12:12:50.068Z,74.37
2022-12-17T12:15:48.248Z,72.10
2022-12-17T12:19:02.635Z,65.90
2022-12-17T12:22:05.148Z,72.27
2022-12-17T12:25:31.040Z,57.57
2022-12-17T12:28:42.225Z,51.50
2022-12-17T12:31:49.899Z,53.80
2022-12-17T12:34:50.072Z,53.57
2022-12-17T12:37:38.198Z,63.50
2022-12-17T12:40:27.351Z,65.00
2022-12-17T12:43:54.337Z,61.87
2022-12-17T12:46:59.737Z,63.93
2022-12-17T12:49:56.020Z,50.33
2022-12-17T12:52:44.641Z,52.30
2022-12-17T12:55:30.879Z,65.70
2022-12-17T12:58:45.991Z,50.73
2022-12-17T13:01:32.113Z,59.67
2022-12-17T13:04:21.736Z,57.00
2022-12-17T13:06:57.182Z,50.77
2022-12-17T13:09:32.478Z,51.23
2022-12-17T13:12:04.426Z,52.13
2022-12-17T13:15:07.243Z,56.57
2022-12-17T13:17:44.627Z,59.43
2022-12-17T13:20:24.079Z,63.80
2022-12-17T13:23:06.073Z,59.77
2022-12-17T13:25:33.423Z,52.63
2022-12-17T13:28:00.804Z,54.27
2022-12-17T13:30:38.061Z,55.13
2022-12-17T13:33:32.134Z,54.03
2022-12-17T13:36:53.662Z,51.93
2022-12-17T13:39:37.160Z,50.77
2022-12-17T13:42:07.320Z,54.00
2022-12-17T13:44:50.095Z,50.60
2022-12-17T13:47:30.803Z,59.00
2022-12-17T13:52:49.021Z,51.43
2022-12-17T13:55:24.006Z,50.50
2022-12-17T13:57:52.880Z,47.80
2022-12-17T14:00:32.720Z,53.03
2022-12-17T14:03:12.520Z,56.40
2022-12-17T14:05:44.545Z,55.13
2022-12-17T14:08:19.617Z,53.43
2022-12-17T14:11:18.362Z,58.20
2022-12-17T14:13:47.959Z,54.37
2022-12-17T14:16:22.608Z,50.87
2022-12-17T14:18:56.891Z,45.57
2022-12-17T14:21:27.500Z,43.33
2022-12-17T14:23:57.401Z,39.00
2022-12-17T14:26:25.208Z,44.30
2022-12-17T14:28:55.169Z,36.13
2022-12-17T14:31:28.981Z,37.30
2022-12-17T14:34:08.790Z,38.10
2022-12-17T14:36:39.222Z,37.47
2022-12-17T14:39:24.324Z,41.67
2022-12-17T14:42:11.886Z,38.43
2022-12-17T14:44:52.520Z,35.30
2022-12-17T14:47:34.954Z,37.00
2022-12-17T14:50:36.065Z,42.00
2022-12-17T14:53:25.557Z,42.43
2022-12-17T14:56:01.318Z,44.67
2022-12-17T14:58:28.515Z,37.87
2022-12-17T15:01:11.363Z,40.33
2022-12-17T15:03:43.885Z,40.87
2022-12-17T15:06:19.191Z,33.93
2022-12-17T15:08:53.428Z,31.50
2022-12-17T15:11:23.592Z,35.03
2022-12-17T15:13:56.083Z,33.73
2022-12-17T15:16:27.377Z,36.77
2022-12-17T15:18:56.436Z,39.60
2022-12-17T15:21:26.866Z,36.33
2022-12-17T15:23:55.144Z,34.20
2022-12-17T15:26:23.522Z,35.70
2022-12-17T15:28:50.820Z,47.00
2022-12-17T15:31:24.842Z,38.97
2022-12-17T15:33:55.639Z,40.87
2022-12-17T15:36:22.753Z,39.77
2022-12-17T15:38:49.855Z,42.10
2022-12-17T15:41:35.654Z,41.93
2022-12-17T15:44:02.764Z,40.37
2022-12-17T15:46:30.283Z,45.20
2022-12-17T15:48:57.651Z,44.63
2022-12-17T15:51:24.752Z,57.17
2022-12-17T15:53:52.280Z,44.03
2022-12-17T15:56:25.583Z,43.10
2022-12-17T15:58:53.386Z,49.83
2022-12-17T16:01:20.933Z,54.17
2022-12-17T16:03:48.209Z,50.37
2022-12-17T16:06:15.303Z,56.13
2022-12-17T16:08:42.420Z,44.80
2022-12-17T16:11:15.456Z,49.57
2022-12-17T16:13:43.049Z,66.47
2022-12-17T16:16:10.538Z,45.70
2022-12-17T16:18:41.528Z,50.27
2022-12-17T16:21:09.990Z,52.97
2022-12-17T16:23:37.640Z,46.37
2022-12-17T16:26:07.997Z,48.60
2022-12-17T16:28:36.640Z,51.97
2022-12-17T16:31:08.867Z,53.37
2022-12-17T16:33:39.548Z,47.43
2022-12-17T16:36:08.793Z,52.40
2022-12-17T16:38:37.122Z,49.23
2022-12-17T16:41:05.301Z,47.33
2022-12-17T16:43:35.652Z,51.47
2022-12-17T16:46:10.609Z,53.70
2022-12-17T16:48:40.017Z,51.23
2022-12-17T16:51:23.958Z,55.80
2022-12-17T16:53:55.961Z,56.57
2022-12-17T16:56:27.838Z,52.43
2022-12-17T16:59:25.132Z,56.57
2022-12-17T17:01:52.343Z,60.00
2022-12-17T17:04:22.818Z,57.53
2022-12-17T17:06:53.662Z,59.57
2022-12-17T17:09:22.743Z,61.67
2022-12-17T17:11:51.989Z,71.30
2022-12-17T17:14:20.210Z,73.90
2022-12-17T17:16:47.358Z,58.47
2022-12-17T17:19:15.099Z,58.77
2022-12-17T17:21:48.881Z,68.03
2022-12-17T17:24:21.634Z,59.70
2022-12-17T17:26:50.932Z,61.20
2022-12-17T17:29:18.606Z,57.20
2022-12-17T17:32:09.354Z,53.73
2022-12-17T17:34:33.337Z,62.90
2022-12-17T17:37:03.336Z,56.67
2022-12-17T17:39:33.203Z,58.80
2022-12-17T17:42:01.274Z,47.50
2022-12-17T17:44:28.431Z,52.13
2022-12-17T17:46:55.721Z,52.47
2022-12-17T17:49:25.464Z,45.20
2022-12-17T17:52:10.298Z,49.53
2022-12-17T17:54:39.728Z,43.87
2022-12-17T17:57:08.665Z,43.43
2022-12-17T17:59:36.214Z,49.83
2022-12-17T18:02:03.824Z,54.97
2022-12-17T18:04:31.940Z,47.70
2022-12-17T18:09:46.671Z,50.30
2022-12-17T18:12:32.090Z,53.00
2022-12-17T18:15:16.292Z,49.50
2022-12-17T18:17:47.855Z,49.67
2022-12-17T18:20:15.591Z,55.67
2022-12-17T18:22:43.338Z,54.87
2022-12-17T18:25:10.759Z,48.90
2022-12-17T18:27:38.737Z,46.93
2022-12-17T18:30:06.845Z,48.53
2022-12-17T18:32:33.962Z,43.20
2022-12-17T18:35:01.129Z,43.13
2022-12-17T18:37:28.291Z,37.93
2022-12-17T18:39:55.420Z,47.50
2022-12-17T18:42:40.938Z,39.70
2022-12-17T18:45:08.655Z,44.00
2022-12-17T18:47:35.817Z,50.90
2022-12-17T18:50:03.261Z,47.67
2022-12-17T18:52:30.549Z,50.40
2022-12-17T18:54:57.665Z,54.50
2022-12-17T18:57:24.853Z,56.00
2022-12-17T18:59:55.238Z,50.93
2022-12-17T19:02:22.388Z,55.07
2022-12-17T19:04:53.059Z,50.50
2022-12-17T19:07:20.293Z,49.80
2022-12-17T19:09:50.733Z,50.17
2022-12-17T19:12:17.860Z,49.77
2022-12-17T19:14:44.945Z,50.17
2022-12-17T19:17:12.126Z,54.07
2022-12-17T19:19:39.305Z,59.87
2022-12-17T19:22:06.899Z,47.03
2022-12-17T19:24:37.150Z,49.93
2022-12-17T19:27:04.374Z,56.80
2022-12-17T19:29:31.747Z,58.17
2022-12-17T19:31:59.197Z,52.87
2022-12-17T19:34:26.587Z,51.30
2022-12-17T19:36:54.146Z,54.73
2022-12-17T19:39:21.360Z,54.60
2022-12-17T19:41:51.809Z,61.83
2022-12-17T19:44:22.713Z,57.90
2022-12-17T19:46:50.133Z,58.87
2022-12-17T19:49:17.764Z,64.73
2022-12-17T19:51:45.414Z,59.93
2022-12-17T19:54:15.689Z,64.30
2022-12-17T19:56:44.957Z,72.07
2022-12-17T19:59:13.761Z,52.53
2022-12-17T20:01:48.044Z,61.90
2022-12-17T20:04:16.600Z,59.13
2022-12-17T20:06:45.336Z,46.20
2022-12-17T20:09:14.003Z,52.10
2022-12-17T20:11:41.635Z,51.83
2022-12-17T20:14:11.722Z,53.80
2022-12-17T20:16:51.707Z,59.07
2022-12-17T20:19:25.579Z,51.47
2022-12-17T20:21:55.007Z,52.30
2022-12-17T20:24:28.836Z,51.73
2022-12-17T20:26:58.826Z,69.70
2022-12-17T20:29:26.350Z,49.00
2022-12-17T20:31:54.215Z,51.53
2022-12-17T20:34:25.654Z,50.80
2022-12-17T20:36:54.593Z,48.47
2022-12-17T20:39:27.183Z,57.37
2022-12-17T20:41:56.287Z,55.60
2022-12-17T20:44:23.615Z,52.17
2022-12-17T20:46:50.709Z,56.47
2022-12-17T20:49:18.415Z,58.53
2022-12-17T20:51:47.883Z,56.40
2022-12-17T20:54:15.051Z,52.00
2022-12-17T20:56:42.252Z,50.27
2022-12-17T20:59:15.723Z,54.70
2022-12-17T21:01:43.797Z,49.73
2022-12-17T21:04:14.012Z,50.70
2022-12-17T21:06:47.420Z,45.93
2022-12-17T21:09:18.157Z,44.73
2022-12-17T21:11:45.433Z,48.37
2022-12-17T21:14:16.575Z,44.20
2022-12-17T21:16:45.275Z,41.70
2022-12-17T21:19:16.749Z,43.33
2022-12-17T21:21:44.008Z,53.00
2022-12-17T21:24:11.418Z,45.93
2022-12-17T21:26:41.694Z,46.33
2022-12-17T21:29:09.926Z,48.60
2022-12-17T21:31:44.773Z,42.97
2022-12-17T21:34:21.380Z,45.30
2022-12-17T21:36:52.208Z,49.40
2022-12-17T21:39:20.888Z,40.20
2022-12-17T21:42:09.654Z,40.03
2022-12-17T21:44:37.114Z,45.73
2022-12-17T21:47:04.436Z,40.97
2022-12-17T21:49:31.904Z,44.67
2022-12-17T21:52:00.348Z,34.73
2022-12-17T21:54:27.680Z,33.93
2022-12-17T21:56:54.938Z,40.33
2022-12-17T21:59:22.156Z,35.10
2022-12-17T22:01:50.326Z,41.77
2022-12-17T22:04:17.848Z,41.33
2022-12-17T22:06:53.263Z,40.87
2022-12-17T22:09:29.939Z,45.17
2022-12-17T22:12:31.500Z,44.57
2022-12-17T22:14:58.634Z,38.20
2022-12-17T22:17:26.209Z,37.80
2022-12-17T22:19:53.278Z,35.80
2022-12-17T22:22:20.392Z,40.40
2022-12-17T22:24:47.494Z,43.17
2022-12-17T22:27:14.856Z,46.20
2022-12-17T22:30:00.830Z,41.57
2022-12-17T22:32:46.410Z,39.30
2022-12-17T22:36:14.419Z,50.57
2022-12-17T22:40:20.813Z,40.70
2022-12-17T22:44:30.854Z,33.37
2022-12-17T22:44:42.339Z,33.83
2022-12-17T22:46:24.268Z,33.30
2022-12-17T22:48:51.387Z,44.40
2022-12-17T22:51:21.382Z,38.87
2022-12-17T22:53:54.426Z,41.53
2022-12-17T22:56:40.276Z,35.50
2022-12-17T22:59:18.421Z,38.43
2022-12-17T23:01:46.309Z,40.90
2022-12-17T23:04:16.027Z,39.13
2022-12-17T23:06:45.564Z,38.70
2022-12-17T23:09:20.819Z,43.20
2022-12-17T23:11:49.347Z,40.73
2022-12-17T23:14:17.484Z,31.20
2022-12-17T23:16:45.054Z,34.73
2022-12-17T23:19:13.524Z,32.50
2022-12-17T23:21:40.735Z,33.63
2022-12-17T23:24:08.599Z,32.63
2022-12-17T23:26:37.130Z,30.30
2022-12-17T23:29:19.199Z,38.00
2022-12-17T23:31:47.392Z,31.30
2022-12-17T23:34:15.001Z,34.83
2022-12-17T23:36:42.176Z,33.57
2022-12-17T23:39:09.586Z,32.27
2022-12-17T23:41:36.837Z,30.47
2022-12-17T23:44:04.109Z,35.83
2022-12-17T23:46:31.934Z,36.23
2022-12-17T23:48:59.497Z,38.83
2022-12-17T23:51:28.203Z,32.60
2022-12-17T23:53:55.804Z,34.97
2022-12-17T23:56:26.295Z,27.03
2022-12-17T23:58:59.723Z,33.37
